createdAt,value
2019-02-07T00:03:08.556Z,86.95
2019-02-07T00:05:58.309Z,86.96
2019-02-07T00:08:28.083Z,86.94
2019-02-07T00:10:57.564Z,86.72
2019-02-07T00:13:26.968Z,86.65
2019-02-07T00:16:01.830Z,86.35
2019-02-07T00:18:31.257Z,86.14
2019-02-07T00:21:03.879Z,86.01
2019-02-07T00:26:21.826Z,86.11
2019-02-07T00:28:51.252Z,86.15
2019-02-07T00:31:23.177Z,86.10
2019-02-07T00:33:52.635Z,86.11
2019-02-07T00:36:22.180Z,86.10
2019-02-07T00:38:51.635Z,86.21
2019-02-07T00:41:21.099Z,86.19
2019-02-07T00:43:50.531Z,86.46
2019-02-07T00:49:10.505Z,86.48
2019-02-07T00:51:40.028Z,86.52
2019-02-07T00:54:28.521Z,86.95
2019-02-07T00:56:58.039Z,86.95
2019-02-07T00:59:27.494Z,86.89
2019-02-07T01:04:31.393Z,87.01
2019-02-07T01:07:00.996Z,87.00
2019-02-07T01:09:32.987Z,86.90
2019-02-07T01:12:02.384Z,86.84
2019-02-07T01:14:31.804Z,86.93
2019-02-07T01:17:01.257Z,86.73
2019-02-07T01:22:16.625Z,86.61
2019-02-07T01:27:34.580Z,86.81
2019-02-07T01:30:27.410Z,86.93
2019-02-07T01:38:24.721Z,86.68
2019-02-07T01:40:54.151Z,86.67
2019-02-07T01:46:28.233Z,86.51
2019-02-07T01:48:57.654Z,86.62
2019-02-07T01:51:27.215Z,86.69
2019-02-07T01:59:25.558Z,86.57
2019-02-07T02:02:07.148Z,86.26
2019-02-07T02:04:48.019Z,86.26
2019-02-07T02:07:18.932Z,86.59
2019-02-07T02:09:49.239Z,86.64
2019-02-07T02:12:18.845Z,86.60
2019-02-07T02:17:49.260Z,86.58
2019-02-07T02:20:19.736Z,86.20
2019-02-07T02:25:28.580Z,86.74
2019-02-07T02:30:41.502Z,86.65
2019-02-07T02:33:22.416Z,86.84
2019-02-07T02:35:52.053Z,86.84
2019-02-07T02:38:40.650Z,86.87
2019-02-07T02:41:10.336Z,86.87
2019-02-07T02:43:39.998Z,87.11
2019-02-07T02:46:09.454Z,87.11
2019-02-07T02:51:13.583Z,87.08
2019-02-07T02:56:26.424Z,87.10
2019-02-07T02:58:55.961Z,86.93
2019-02-07T03:02:03.652Z,87.76
2019-02-07T03:07:35.552Z,87.48
2019-02-07T03:16:09.712Z,87.46
2019-02-07T03:18:58.686Z,87.42
2019-02-07T03:21:47.299Z,87.37
2019-02-07T03:24:50.586Z,86.95
2019-02-07T03:27:39.030Z,86.86
2019-02-07T03:30:28.421Z,86.86
2019-02-07T03:33:16.774Z,86.52
2019-02-07T03:35:59.940Z,86.52
2019-02-07T03:38:50.113Z,86.72
2019-02-07T03:41:38.730Z,86.64
2019-02-07T03:44:27.297Z,86.64
2019-02-07T03:47:15.635Z,86.65
2019-02-07T03:50:03.962Z,86.76
2019-02-07T03:52:52.360Z,86.59
2019-02-07T03:56:02.485Z,86.79
2019-02-07T03:58:50.881Z,86.79
2019-02-07T04:01:39.194Z,86.62
2019-02-07T04:04:27.512Z,86.49
2019-02-07T04:09:58.679Z,86.38
2019-02-07T04:13:03.726Z,86.49
2019-02-07T04:15:52.057Z,86.49
2019-02-07T04:18:42.946Z,86.00
2019-02-07T04:24:18.911Z,86.89
2019-02-07T04:26:59.053Z,87.14
2019-02-07T04:30:06.643Z,88.08
2019-02-07T04:32:54.983Z,88.08
2019-02-07T04:35:45.049Z,88.37
2019-02-07T04:38:44.571Z,87.76
2019-02-07T04:41:33.019Z,87.76
2019-02-07T04:44:21.383Z,87.24
2019-02-07T04:47:24.841Z,87.28
2019-02-07T04:50:17.315Z,87.28
2019-02-07T04:53:03.327Z,87.42
2019-02-07T04:55:51.687Z,87.48
2019-02-07T04:58:40.161Z,87.52
2019-02-07T05:01:28.638Z,87.67
2019-02-07T05:04:17.121Z,87.67
2019-02-07T05:07:05.518Z,87.09
2019-02-07T05:09:53.829Z,87.09
2019-02-07T05:12:42.367Z,86.56
2019-02-07T05:15:50.357Z,86.42
2019-02-07T05:18:38.962Z,86.42
2019-02-07T05:21:27.285Z,86.17
2019-02-07T05:24:18.355Z,86.08
2019-02-07T05:29:48.205Z,85.79
2019-02-07T05:32:36.578Z,85.83
2019-02-07T05:35:22.105Z,85.79
2019-02-07T05:38:12.283Z,85.72
2019-02-07T05:41:00.831Z,85.61
2019-02-07T05:43:49.194Z,85.61
2019-02-07T05:46:37.597Z,85.41
2019-02-07T05:49:28.904Z,85.53
2019-02-07T05:52:41.168Z,85.38
2019-02-07T06:01:14.565Z,85.77
2019-02-07T06:04:13.442Z,85.99
2019-02-07T06:07:05.900Z,85.99
2019-02-07T06:09:55.534Z,86.36
2019-02-07T06:12:44.189Z,86.13
2019-02-07T06:15:32.678Z,86.21
2019-02-07T06:18:20.949Z,86.20
2019-02-07T06:21:09.271Z,86.22
2019-02-07T06:23:52.599Z,86.04
2019-02-07T06:26:41.155Z,85.91
2019-02-07T06:29:17.143Z,85.58
2019-02-07T06:32:05.544Z,85.51
2019-02-07T06:35:14.347Z,85.38
2019-02-07T06:37:53.316Z,85.33
2019-02-07T06:41:00.746Z,84.92
2019-02-07T06:43:49.065Z,84.92
2019-02-07T06:46:37.460Z,84.82
2019-02-07T06:49:26.237Z,84.84
2019-02-07T06:52:14.617Z,84.41
2019-02-07T06:55:02.934Z,84.41
2019-02-07T06:57:51.230Z,83.94
2019-02-07T07:00:43.751Z,83.69
2019-02-07T07:03:44.226Z,83.69
2019-02-07T07:06:32.526Z,83.59
2019-02-07T07:09:29.093Z,83.61
2019-02-07T07:12:20.671Z,83.57
2019-02-07T07:15:08.973Z,83.53
2019-02-07T07:17:57.442Z,83.55
2019-02-07T07:20:48.642Z,83.37
2019-02-07T07:23:58.530Z,83.23
2019-02-07T07:27:08.201Z,83.13
2019-02-07T07:29:56.481Z,83.13
2019-02-07T07:35:38.589Z,83.16
2019-02-07T07:38:26.877Z,83.16
2019-02-07T07:41:30.375Z,83.01
2019-02-07T07:46:47.990Z,83.17
2019-02-07T07:49:36.920Z,82.43
2019-02-07T07:52:20.812Z,83.16
2019-02-07T07:55:10.058Z,83.16
2019-02-07T07:57:58.337Z,82.48
2019-02-07T08:00:46.861Z,82.05
2019-02-07T08:03:38.228Z,82.05
2019-02-07T08:09:12.352Z,81.91
2019-02-07T08:12:00.690Z,81.48
2019-02-07T08:14:49.292Z,81.48
2019-02-07T08:17:58.121Z,81.18
2019-02-07T08:20:43.866Z,80.89
2019-02-07T08:23:32.659Z,80.49
2019-02-07T08:26:21.086Z,80.39
2019-02-07T08:28:59.066Z,80.20
2019-02-07T08:31:47.392Z,79.78
2019-02-07T08:34:35.705Z,79.82
2019-02-07T08:37:24.094Z,79.67
2019-02-07T08:40:12.428Z,79.18
2019-02-07T08:43:12.059Z,78.68
2019-02-07T08:46:00.660Z,78.55
2019-02-07T08:51:30.420Z,78.24
2019-02-07T08:57:05.764Z,77.97
2019-02-07T08:59:55.488Z,77.67
2019-02-07T09:02:51.592Z,77.38
2019-02-07T09:05:23.947Z,76.91
2019-02-07T09:08:12.491Z,76.73
2019-02-07T09:11:01.515Z,76.58
2019-02-07T09:16:40.610Z,76.24
2019-02-07T09:22:24.729Z,75.80
2019-02-07T09:28:30.018Z,75.16
2019-02-07T09:31:08.321Z,74.88
2019-02-07T09:33:56.674Z,74.02
2019-02-07T09:36:46.840Z,73.58
2019-02-07T09:39:35.319Z,73.66
2019-02-07T09:42:24.070Z,73.51
2019-02-07T09:45:12.954Z,73.50
2019-02-07T09:47:56.688Z,73.46
2019-02-07T09:50:45.037Z,73.10
2019-02-07T09:53:31.047Z,72.74
2019-02-07T09:56:19.641Z,72.58
2019-02-07T09:59:08.549Z,72.23
2019-02-07T10:01:56.846Z,72.18
2019-02-07T10:04:46.502Z,72.29
2019-02-07T10:07:34.717Z,72.37
2019-02-07T10:13:18.492Z,71.80
2019-02-07T10:16:04.582Z,71.58
2019-02-07T10:18:53.034Z,71.47
2019-02-07T10:21:41.313Z,71.45
2019-02-07T10:24:30.359Z,71.10
2019-02-07T10:30:03.388Z,70.89
2019-02-07T10:35:42.195Z,71.30
2019-02-07T10:38:34.111Z,71.40
2019-02-07T10:41:28.071Z,71.75
2019-02-07T10:44:16.583Z,72.30
2019-02-07T10:47:04.903Z,72.31
2019-02-07T10:49:59.398Z,72.83
2019-02-07T10:52:43.366Z,73.21
2019-02-07T10:55:34.824Z,73.45
2019-02-07T10:58:25.553Z,73.76
2019-02-07T11:01:14.000Z,73.94
2019-02-07T11:04:02.715Z,74.17
2019-02-07T11:06:51.106Z,74.20
2019-02-07T11:09:41.785Z,74.24
2019-02-07T11:12:30.359Z,74.21
2019-02-07T11:15:19.174Z,74.33
2019-02-07T11:18:07.526Z,74.12
2019-02-07T11:20:55.846Z,73.72
2019-02-07T11:23:44.168Z,73.40
2019-02-07T11:26:32.796Z,73.52
2019-02-07T11:29:21.070Z,73.52
2019-02-07T11:32:10.150Z,73.63
2019-02-07T11:34:59.264Z,73.57
2019-02-07T11:37:47.755Z,73.31
2019-02-07T11:40:36.306Z,73.40
2019-02-07T11:43:24.960Z,73.25
2019-02-07T11:49:08.053Z,73.33
2019-02-07T11:51:56.652Z,73.41
2019-02-07T11:57:27.149Z,73.32
2019-02-07T12:03:24.363Z,73.56
2019-02-07T12:06:12.731Z,73.46
2019-02-07T12:09:01.220Z,73.78
2019-02-07T12:11:49.597Z,74.11
2019-02-07T12:14:38.337Z,74.14
2019-02-07T12:20:17.758Z,74.73
2019-02-07T12:23:06.290Z,74.83
2019-02-07T12:25:54.605Z,74.68
2019-02-07T12:31:51.860Z,74.49
2019-02-07T12:34:40.415Z,74.23
2019-02-07T12:37:32.171Z,73.91
2019-02-07T12:40:41.094Z,73.95
2019-02-07T12:43:30.901Z,73.96
2019-02-07T12:46:19.235Z,74.09
2019-02-07T12:49:29.528Z,73.91
2019-02-07T12:52:18.766Z,73.94
2019-02-07T12:55:26.857Z,73.85
2019-02-07T12:58:15.241Z,73.92
2019-02-07T13:01:03.940Z,73.53
2019-02-07T13:03:52.235Z,73.32
2019-02-07T13:06:41.170Z,73.49
2019-02-07T13:09:24.579Z,73.75
2019-02-07T13:12:04.911Z,73.88
2019-02-07T13:14:53.446Z,73.98
2019-02-07T13:17:42.363Z,74.17
2019-02-07T13:20:32.119Z,74.71
2019-02-07T13:23:20.834Z,74.90
2019-02-07T13:26:23.513Z,75.31
2019-02-07T13:28:59.333Z,75.52
2019-02-07T13:31:38.274Z,75.80
2019-02-07T13:34:26.819Z,75.89
2019-02-07T13:37:29.585Z,75.83
2019-02-07T13:40:05.282Z,75.94
2019-02-07T13:42:53.947Z,76.00
2019-02-07T13:45:43.466Z,76.09
2019-02-07T13:54:23.307Z,76.37
2019-02-07T13:59:43.068Z,76.70
2019-02-07T14:02:31.603Z,77.10
2019-02-07T14:05:38.623Z,77.58
2019-02-07T14:08:37.870Z,77.96
2019-02-07T14:14:20.024Z,78.18
2019-02-07T14:20:02.997Z,78.50
2019-02-07T14:25:54.551Z,78.50
2019-02-07T14:28:43.886Z,78.50
2019-02-07T14:31:32.263Z,78.54
2019-02-07T14:34:39.751Z,78.81
2019-02-07T14:37:28.295Z,78.81
2019-02-07T14:40:16.843Z,79.24
2019-02-07T14:43:02.653Z,80.00
2019-02-07T14:45:50.945Z,80.00
2019-02-07T14:48:39.391Z,80.50
2019-02-07T14:54:22.152Z,80.95
2019-02-07T14:56:51.996Z,81.22
2019-02-07T14:59:21.780Z,81.68
2019-02-07T15:01:51.638Z,82.06
2019-02-07T15:04:21.078Z,82.15
2019-02-07T15:06:50.700Z,82.22
2019-02-07T15:09:53.238Z,82.37
2019-02-07T15:15:05.160Z,82.79
2019-02-07T15:17:34.578Z,84.01
2019-02-07T15:23:01.388Z,83.88
2019-02-07T15:25:30.813Z,84.64
2019-02-07T15:28:00.301Z,84.64
2019-02-07T15:30:29.762Z,84.78
2019-02-07T15:32:59.223Z,85.07
2019-02-07T15:35:32.130Z,85.23
2019-02-07T15:38:01.641Z,85.32
2019-02-07T15:40:31.179Z,85.20
2019-02-07T15:43:00.882Z,85.07
2019-02-07T15:45:30.634Z,85.26
2019-02-07T15:48:00.071Z,85.58
2019-02-07T15:50:37.657Z,85.24
2019-02-07T15:53:02.394Z,85.30
2019-02-07T15:55:32.043Z,85.48
2019-02-07T15:58:01.713Z,85.79
2019-02-07T16:00:50.274Z,85.98
2019-02-07T16:03:38.599Z,86.10
2019-02-07T16:06:08.191Z,86.14
2019-02-07T16:08:38.023Z,86.21
2019-02-07T16:13:56.092Z,86.48
2019-02-07T16:16:25.773Z,86.75
2019-02-07T16:21:43.782Z,87.05
2019-02-07T16:24:25.057Z,87.15
2019-02-07T16:26:54.595Z,87.10
2019-02-07T16:29:23.996Z,87.20
2019-02-07T16:31:53.619Z,87.30
2019-02-07T16:34:23.668Z,87.20
2019-02-07T16:36:53.124Z,87.37
2019-02-07T16:39:22.652Z,87.50
2019-02-07T16:41:52.265Z,87.40
2019-02-07T16:44:21.845Z,87.45
2019-02-07T16:46:54.343Z,87.24
2019-02-07T16:49:22.825Z,87.24
2019-02-07T16:51:52.401Z,87.28
2019-02-07T16:54:21.959Z,87.29
2019-02-07T16:57:10.369Z,87.07
2019-02-07T16:59:40.336Z,87.05
2019-02-07T17:02:29.092Z,87.50
2019-02-07T17:07:53.126Z,87.10
2019-02-07T17:10:42.608Z,87.34
2019-02-07T17:16:06.116Z,87.14
2019-02-07T17:18:35.753Z,87.13
2019-02-07T17:21:12.133Z,87.08
2019-02-07T17:26:25.647Z,87.18
2019-02-07T17:28:55.121Z,87.44
2019-02-07T17:31:41.584Z,87.54
2019-02-07T17:39:18.652Z,87.42
2019-02-07T17:41:48.720Z,87.68
2019-02-07T17:44:19.935Z,87.68
2019-02-07T17:47:10.367Z,87.73
2019-02-07T17:49:39.770Z,87.63
2019-02-07T17:52:09.184Z,87.48
2019-02-07T17:54:38.780Z,87.32
2019-02-07T17:57:08.315Z,87.17
2019-02-07T17:59:37.761Z,87.18
2019-02-07T18:02:19.359Z,87.22
2019-02-07T18:04:49.459Z,87.10
2019-02-07T18:07:19.450Z,87.20
2019-02-07T18:09:51.011Z,87.17
2019-02-07T18:15:29.298Z,87.01
2019-02-07T18:17:59.000Z,86.82
2019-02-07T18:20:28.506Z,86.78
2019-02-07T18:23:16.835Z,86.86
2019-02-07T18:25:46.912Z,87.01
2019-02-07T18:28:35.396Z,87.28
2019-02-07T18:31:05.081Z,87.28
2019-02-07T18:33:47.154Z,87.11
2019-02-07T18:39:09.787Z,87.10
2019-02-07T18:41:39.609Z,87.26
2019-02-07T18:44:28.402Z,87.27
2019-02-07T18:46:58.004Z,87.27
2019-02-07T18:49:42.484Z,87.29
2019-02-07T18:52:12.137Z,87.27
2019-02-07T18:54:41.669Z,87.48
2019-02-07T18:57:11.381Z,87.54
2019-02-07T18:59:43.845Z,87.65
2019-02-07T19:05:14.951Z,87.67
2019-02-07T19:07:44.377Z,87.68
2019-02-07T19:10:15.065Z,87.65
2019-02-07T19:12:44.572Z,87.64
2019-02-07T19:15:17.479Z,87.56
2019-02-07T19:18:06.072Z,87.50
2019-02-07T19:23:33.127Z,87.52
2019-02-07T19:26:02.550Z,87.39
2019-02-07T19:28:33.919Z,87.25
2019-02-07T19:33:38.302Z,87.22
2019-02-07T19:39:08.210Z,87.33
2019-02-07T19:41:49.293Z,87.84
2019-02-07T19:44:21.582Z,87.84
2019-02-07T19:46:51.002Z,87.49
2019-02-07T19:49:20.466Z,87.52
2019-02-07T19:51:49.998Z,87.46
2019-02-07T19:54:19.564Z,87.43
2019-02-07T19:56:51.918Z,87.42
2019-02-07T19:59:21.522Z,87.29
2019-02-07T20:02:11.426Z,87.34
2019-02-07T20:04:55.330Z,87.35
2019-02-07T20:07:36.572Z,87.18
2019-02-07T20:13:04.055Z,86.99
2019-02-07T20:15:35.361Z,87.13
2019-02-07T20:18:06.350Z,87.13
2019-02-07T20:20:36.016Z,86.78
2019-02-07T20:23:13.083Z,86.77
2019-02-07T20:25:42.723Z,86.84
2019-02-07T20:28:12.510Z,86.62
2019-02-07T20:30:43.220Z,86.69
2019-02-07T20:33:31.861Z,86.50
2019-02-07T20:36:01.329Z,86.50
2019-02-07T20:38:30.948Z,86.55
2019-02-07T20:41:00.463Z,86.60
2019-02-07T20:43:30.000Z,86.49
2019-02-07T20:46:18.450Z,86.46
2019-02-07T20:48:50.993Z,86.44
2019-02-07T20:51:20.433Z,86.47
2019-02-07T20:53:54.287Z,86.46
2019-02-07T20:56:23.819Z,86.40
2019-02-07T20:58:53.247Z,86.43
2019-02-07T21:01:23.164Z,86.38
2019-02-07T21:03:52.851Z,86.46
2019-02-07T21:06:22.713Z,86.56
2019-02-07T21:08:52.238Z,86.66
2019-02-07T21:11:21.673Z,86.84
2019-02-07T21:13:51.104Z,86.83
2019-02-07T21:16:20.744Z,86.99
2019-02-07T21:18:50.371Z,87.07
2019-02-07T21:21:20.212Z,87.11
2019-02-07T21:23:49.817Z,87.36
2019-02-07T21:26:19.624Z,87.49
2019-02-07T21:28:49.349Z,88.03
2019-02-07T21:31:24.566Z,88.03
2019-02-07T21:33:54.192Z,87.94
2019-02-07T21:36:25.865Z,88.23
2019-02-07T21:38:55.272Z,88.31
2019-02-07T21:41:24.811Z,88.57
2019-02-07T21:43:54.384Z,88.56
2019-02-07T21:46:23.869Z,88.62
2019-02-07T21:51:46.718Z,89.21
2019-02-07T21:54:19.112Z,89.42
2019-02-07T21:57:10.323Z,89.38
2019-02-07T21:59:42.223Z,89.24
2019-02-07T22:02:11.842Z,89.24
2019-02-07T22:05:12.225Z,89.28
2019-02-07T22:07:41.758Z,89.55
2019-02-07T22:10:12.344Z,89.53
2019-02-07T22:13:04.535Z,89.69
2019-02-07T22:15:18.567Z,89.86
2019-02-07T22:23:34.966Z,90.04
2019-02-07T22:26:04.607Z,90.01
2019-02-07T22:28:34.043Z,90.14
2019-02-07T22:31:06.289Z,90.21
2019-02-07T22:33:35.753Z,90.23
2019-02-07T22:36:05.428Z,90.30
2019-02-07T22:38:54.081Z,90.43
2019-02-07T22:41:23.820Z,90.49
2019-02-07T22:43:53.240Z,90.46
2019-02-07T22:46:22.802Z,90.48
2019-02-07T22:48:52.630Z,90.35
2019-02-07T22:51:24.835Z,90.06
2019-02-07T22:53:54.646Z,89.82
2019-02-07T22:56:24.051Z,89.76
2019-02-07T22:58:53.442Z,89.75
2019-02-07T23:02:07.576Z,89.74
2019-02-07T23:07:30.416Z,89.94
2019-02-07T23:10:19.723Z,90.43
2019-02-07T23:12:49.392Z,90.03
2019-02-07T23:15:20.682Z,90.34
2019-02-07T23:20:38.747Z,90.44
2019-02-07T23:23:08.820Z,90.45
2019-02-07T23:25:38.780Z,90.64
2019-02-07T23:28:08.666Z,90.76
2019-02-07T23:30:38.178Z,90.98
2019-02-07T23:33:10.938Z,90.98
2019-02-07T23:38:15.294Z,90.86
2019-02-07T23:40:45.416Z,90.65
2019-02-07T23:43:15.036Z,90.68
2019-02-07T23:45:44.455Z,90.86
2019-02-07T23:48:14.026Z,91.02
2019-02-07T23:50:43.537Z,91.03
2019-02-07T23:53:14.700Z,90.94
2019-02-07T23:55:55.969Z,90.72
